Terminal Aerodrome Forecast
Issued by NWS Cleveland, OH

Home | Current Version | Previous Version | Graphics & Text | Print | Product List | Glossary Off
Versions: 1 2 3 4 5 6 7 8 9 10 11 12 13 14 15 16 17 18 19 20

000
FTUS41 KCLE 312200 AAA
TAFTOL
TAF AMD
KTOL 312257Z 3123/0118 24006KT P6SM BKN060
      TEMPO 3123/3124 3SM -SHRA BKN035
     FM010100 23003KT P6SM SKC
     FM011000 00000KT 5SM BR SKC
     FM011300 22005KT P6SM SKC=

USA.gov is the U.S. government's official web portal to all federal, state and local government web resources and services.